Time;durP1;ratioP1;P1;durP2;ratioP2;P2;SDS_P1;SDS_P2;PMS_P1;PMS_P2;Temp;Humidity;BMP_temperature;BMP_pressure;BME280_temperature;BME280_humidity;BME280_pressure;Samples;Min_cycle;Max_cycle;Signal;HPM_P1;HPM_P2
2023/08/18 00:00:48;;;;;;;;;;;;;;;21.60;54.83;101701.91;4853533;28;114296;-78
2023/08/18 00:03:15;;;;;;;;;;;;;;;21.58;54.93;101713.66;4828770;29;113877;-78
2023/08/18 00:05:42;;;;;;;;;;;;;;;21.58;54.90;101716.34;4839366;29;123498;-77
2023/08/18 00:08:09;;;;;;;;;;;;;;;21.61;54.88;101709.88;4839227;29;123806;-78
2023/08/18 00:10:36;;;;;;;;;;;;;;;21.61;54.99;101709.03;4839075;29;114320;-78
2023/08/18 00:13:03;;;;;;;;;;;;;;;21.63;54.94;101715.16;4837923;29;111829;-78
2023/08/18 00:15:30;;;;;;;;;;;;;;;21.61;54.94;101711.72;4844643;29;124172;-78
2023/08/18 00:17:57;;;;;;;;;;;;;;;21.61;54.96;101709.03;4829562;29;124250;-78
2023/08/18 00:20:24;;;;;;;;;;;;;;;21.61;54.88;101709.88;4838662;29;114632;-78
2023/08/18 00:22:51;;;;;;;;;;;;;;;21.57;54.85;101709.25;4838679;29;112549;-78
2023/08/18 00:25:18;;;;;;;;;;;;;;;21.58;54.96;101705.56;4843742;29;123282;-78
2023/08/18 00:27:44;;;;;;;;;;;;;;;21.59;55.00;101711.84;4847184;29;123954;-78
2023/08/18 00:30:11;;;;;;;;;;;;;;;21.61;54.90;101709.03;4826659;29;115350;-78
2023/08/18 00:32:38;;;;;;;;;;;;;;;21.60;54.83;101712.69;4844236;29;114742;-78
2023/08/18 00:35:06;;;;;;;;;;;;;;;21.60;54.83;101712.69;4847876;29;123357;-78
2023/08/18 00:37:33;;;;;;;;;;;;;;;21.60;54.90;101712.69;4846160;28;123639;-78
2023/08/18 00:40:00;;;;;;;;;;;;;;;21.59;54.91;101711.84;4836974;29;113923;-77
2023/08/18 00:42:26;;;;;;;;;;;;;;;21.61;54.92;101719.81;4842111;29;113051;-78
2023/08/18 00:44:53;;;;;;;;;;;;;;;21.61;54.83;101709.03;4836300;29;125346;-78
2023/08/18 00:47:20;;;;;;;;;;;;;;;21.60;54.96;101712.69;4838388;29;123513;-78
2023/08/18 00:49:48;;;;;;;;;;;;;;;21.60;54.86;101710.00;4838205;29;113963;-78
2023/08/18 00:52:17;;;;;;;;;;;;;;;21.58;54.93;101705.56;4838095;29;113914;-78
2023/08/18 00:54:48;;;;;;;;;;;;;;;21.57;54.78;101703.88;4843471;29;126004;-79
2023/08/18 00:57:15;;;;;;;;;;;;;;;21.55;54.98;101703.13;4840106;29;123340;-78
2023/08/18 00:59:43;;;;;;;;;;;;;;;21.55;54.88;101704.97;4845508;29;114737;-78
2023/08/18 01:02:10;;;;;;;;;;;;;;;21.53;54.93;101705.09;4849819;28;113408;-78
2023/08/18 01:04:37;;;;;;;;;;;;;;;21.51;54.89;101701.66;4849948;29;124642;-78
2023/08/18 01:07:04;;;;;;;;;;;;;;;21.49;54.96;101700.91;4862550;28;125025;-78
2023/08/18 01:09:31;;;;;;;;;;;;;;;21.48;54.91;101699.19;4848338;29;113968;-77
2023/08/18 01:12:12;;;;;;;;;;;;;;;21.48;54.97;101698.34;4840158;29;113780;-78
2023/08/18 01:14:54;;;;;;;;;;;;;;;21.47;54.94;101692.06;4843058;29;125022;-78
2023/08/18 01:17:25;;;;;;;;;;;;;;;21.45;54.94;101694.03;4844927;29;123718;-78
2023/08/18 01:19:53;;;;;;;;;;;;;;;21.43;54.95;101695.94;4834418;29;114847;-78
2023/08/18 01:22:20;;;;;;;;;;;;;;;21.43;55.06;101690.56;4836796;29;115010;-78
2023/08/18 01:24:47;;;;;;;;;;;;;;;21.44;55.07;101691.44;4837936;29;123706;-78
2023/08/18 01:27:14;;;;;;;;;;;;;;;21.43;54.96;101685.16;4836817;29;123979;-78
2023/08/18 01:29:41;;;;;;;;;;;;;;;21.41;54.96;101687.13;4841874;29;114030;-78
2023/08/18 01:32:10;;;;;;;;;;;;;;;21.39;55.08;101678.31;4856732;28;113369;-78
2023/08/18 01:34:41;;;;;;;;;;;;;;;21.37;54.94;101683.81;4832804;29;124118;-78
2023/08/18 01:37:08;;;;;;;;;;;;;;;21.37;54.94;101685.66;4861540;28;122007;-77
2023/08/18 01:39:36;;;;;;;;;;;;;;;21.34;54.95;101685.88;4853621;28;114423;-78
2023/08/18 01:42:03;;;;;;;;;;;;;;;21.34;55.08;101672.41;4837865;29;114333;-77
2023/08/18 01:44:31;;;;;;;;;;;;;;;21.33;54.95;101678.78;4845796;29;124049;-78
2023/08/18 01:46:58;;;;;;;;;;;;;;;21.31;54.91;101669.97;4857856;28;125081;-78
2023/08/18 01:49:25;;;;;;;;;;;;;;;21.29;54.87;101677.31;4843403;29;114468;-78
2023/08/18 01:51:53;;;;;;;;;;;;;;;21.25;55.00;101675.81;4853461;29;113906;-78
2023/08/18 01:54:19;;;;;;;;;;;;;;;21.20;55.06;101682.41;4831590;29;124761;-78
2023/08/18 01:56:46;;;;;;;;;;;;;;;21.18;54.98;101670.91;4848920;29;123988;-78
2023/08/18 01:59:14;;;;;;;;;;;;;;;21.16;55.06;101662.06;4844040;29;115821;-78
2023/08/18 02:01:41;;;;;;;;;;;;;;;21.13;55.05;101659.59;4847018;28;113470;-78
2023/08/18 02:04:08;;;;;;;;;;;;;;;21.13;55.13;101656.91;4845235;29;124488;-78
2023/08/18 02:06:35;;;;;;;;;;;;;;;21.13;55.08;101661.44;4842892;29;124551;-78
2023/08/18 02:09:03;;;;;;;;;;;;;;;21.12;55.15;101649.81;4842089;29;115277;-78
2023/08/18 02:11:32;;;;;;;;;;;;;;;21.12;55.18;101649.81;4854206;28;115778;-78
2023/08/18 02:13:59;;;;;;;;;;;;;;;21.10;55.15;101651.78;4852396;29;124521;-78
2023/08/18 02:16:26;;;;;;;;;;;;;;;21.09;55.11;101649.19;4862769;28;122374;-78
2023/08/18 02:18:53;;;;;;;;;;;;;;;21.07;55.17;101646.63;4846802;28;114881;-78
2023/08/18 02:21:20;;;;;;;;;;;;;;;21.05;55.23;101642.34;4836045;29;114251;-77
2023/08/18 02:23:47;;;;;;;;;;;;;;;21.04;55.27;101652.25;4844155;29;124026;-78
2023/08/18 02:26:14;;;;;;;;;;;;;;;21.03;55.21;101650.53;4843348;29;123489;-77
2023/08/18 02:28:41;;;;;;;;;;;;;;;21.02;55.16;101654.22;4839977;28;113516;-77
2023/08/18 02:31:09;;;;;;;;;;;;;;;21.01;55.21;101657.88;4835126;29;113515;-78
2023/08/18 02:33:36;;;;;;;;;;;;;;;21.00;55.26;101650.75;4859873;28;123266;-78
2023/08/18 02:36:05;;;;;;;;;;;;;;;21.00;55.23;101634.59;4843379;29;123206;-78
2023/08/18 02:38:33;;;;;;;;;;;;;;;21.00;55.30;101642.66;4836423;29;114672;-77
2023/08/18 02:41:00;;;;;;;;;;;;;;;20.99;55.29;101649.06;4859964;28;114553;-78
2023/08/18 02:43:27;;;;;;;;;;;;;;;20.99;55.21;101643.66;4836157;29;124356;-78
2023/08/18 02:45:58;;;;;;;;;;;;;;;21.00;55.38;101648.06;4837801;28;123814;-78
2023/08/18 02:48:26;;;;;;;;;;;;;;;20.99;55.33;101649.06;4845941;29;114751;-77
2023/08/18 02:51:03;;;;;;;;;;;;;;;21.00;55.30;101645.38;4838901;29;114725;-78
2023/08/18 02:53:31;;;;;;;;;;;;;;;21.01;55.26;101652.47;4848653;28;123889;-78
2023/08/18 02:56:00;;;;;;;;;;;;;;;21.01;55.36;101647.09;4836464;29;124185;-78
2023/08/18 02:58:28;;;;;;;;;;;;;;;21.01;55.29;101649.78;4843679;29;115569;-78
2023/08/18 03:00:56;;;;;;;;;;;;;;;20.99;55.29;101649.06;4828881;29;115215;-78
2023/08/18 03:03:23;;;;;;;;;;;;;;;20.98;55.30;101652.72;4836144;29;123970;-78
2023/08/18 03:05:50;;;;;;;;;;;;;;;20.97;55.33;101651.00;4841864;29;124834;-77
2023/08/18 03:08:18;;;;;;;;;;;;;;;20.95;55.22;101650.28;4878276;28;113940;-78
2023/08/18 03:10:54;;;;;;;;;;;;;;;20.93;55.33;101654.91;4865511;29;115103;-78
2023/08/18 03:13:21;;;;;;;;;;;;;;;20.91;55.37;101640.72;4823014;29;125675;-78
2023/08/18 03:15:48;;;;;;;;;;;;;;;20.91;55.31;101635.31;4837274;29;123315;-78
2023/08/18 03:18:15;;;;;;;;;;;;;;;20.89;55.46;101637.25;4837338;29;113842;-78
2023/08/18 03:20:43;;;;;;;;;;;;;;;20.87;55.30;101633.81;4845373;29;112734;-78
2023/08/18 03:23:15;;;;;;;;;;;;;;;20.85;55.33;101635.75;4848827;28;123603;-78
2023/08/18 03:25:44;;;;;;;;;;;;;;;20.82;55.25;101633.31;4858658;28;97288;-78
2023/08/18 03:28:11;;;;;;;;;;;;;;;20.78;55.34;101625.47;4840777;29;113952;-78
2023/08/18 03:30:38;;;;;;;;;;;;;;;20.77;55.45;101629.13;4843840;28;113924;-78
2023/08/18 03:33:06;;;;;;;;;;;;;;;20.74;55.48;101626.69;4844499;29;124524;-78
2023/08/18 03:35:35;;;;;;;;;;;;;;;20.75;55.52;101630.22;4850251;28;123009;-78
2023/08/18 03:38:03;;;;;;;;;;;;;;;20.75;55.66;101633.78;4835832;29;114599;-78
2023/08/18 03:40:31;;;;;;;;;;;;;;;20.75;55.59;101636.47;4843905;29;112430;-78
2023/08/18 03:42:58;;;;;;;;;;;;;;;20.75;55.54;101632.91;4841334;29;123635;-78
2023/08/18 03:45:26;;;;;;;;;;;;;;;20.75;55.50;101636.47;4860772;28;123908;-78
2023/08/18 03:47:54;;;;;;;;;;;;;;;20.75;55.56;101636.47;4843848;28;114772;-78
2023/08/18 03:50:21;;;;;;;;;;;;;;;20.76;55.58;101638.19;4834346;29;114486;-78
2023/08/18 03:52:49;;;;;;;;;;;;;;;20.74;55.53;101629.38;4845810;29;124472;-78
2023/08/18 03:55:17;;;;;;;;;;;;;;;20.73;55.63;101626.78;4842040;29;123695;-78
2023/08/18 03:57:45;;;;;;;;;;;;;;;20.68;55.63;101621.78;4834132;29;113844;-77
2023/08/18 04:00:12;;;;;;;;;;;;;;;20.68;55.70;101623.59;4832645;29;113357;-78
2023/08/18 04:02:43;;;;;;;;;;;;;;;20.67;55.72;101621.88;4853469;28;124118;-77
2023/08/18 04:05:14;;;;;;;;;;;;;;;20.67;55.89;101622.72;4837540;29;124010;-78
2023/08/18 04:07:41;;;;;;;;;;;;;;;20.67;55.75;101622.72;4861433;28;114474;-78
2023/08/18 04:10:08;;;;;;;;;;;;;;;20.65;55.70;101613.91;4852681;28;113432;-78
2023/08/18 04:12:35;;;;;;;;;;;;;;;20.63;55.70;101618.56;4866148;28;123865;-78
2023/08/18 04:15:02;;;;;;;;;;;;;;;20.60;55.73;101622.31;4865086;28;124330;-78
2023/08/18 04:17:29;;;;;;;;;;;;;;;20.58;55.84;101612.63;4842555;29;114589;-78
2023/08/18 04:19:58;;;;;;;;;;;;;;;20.56;55.98;101626.19;4824460;29;112931;-77
2023/08/18 04:22:25;;;;;;;;;;;;;;;20.55;55.97;101616.41;4857019;28;123854;-78
2023/08/18 04:24:52;;;;;;;;;;;;;;;20.54;56.06;101621.91;4835951;29;124222;-78
2023/08/18 04:27:20;;;;;;;;;;;;;;;20.53;56.09;101625.56;4844154;29;113669;-78
2023/08/18 04:29:47;;;;;;;;;;;;;;;20.54;55.78;101621.91;4835776;29;113641;-78
2023/08/18 04:32:15;;;;;;;;;;;;;;;20.54;55.98;101632.66;4848267;29;123721;-78
2023/08/18 04:34:42;;;;;;;;;;;;;;;20.53;56.01;101625.56;4865678;28;123356;-78
2023/08/18 04:37:09;;;;;;;;;;;;;;;20.52;56.04;101629.25;4842458;29;113777;-78
2023/08/18 04:39:37;;;;;;;;;;;;;;;20.54;56.15;101627.28;4850834;29;115190;-78
2023/08/18 04:42:04;;;;;;;;;;;;;;;20.55;56.16;101634.38;4858054;28;123930;-78
2023/08/18 04:44:34;;;;;;;;;;;;;;;20.56;56.16;101628.03;4860156;28;124185;-78
2023/08/18 04:47:03;;;;;;;;;;;;;;;20.57;56.14;101637.84;4836374;29;114703;-78
2023/08/18 04:49:30;;;;;;;;;;;;;;;20.58;56.27;101623.38;4837082;29;114167;-78
2023/08/18 04:51:57;;;;;;;;;;;;;;;20.60;56.11;101632.22;4845436;29;123874;-78
2023/08/18 04:54:25;;;;;;;;;;;;;;;20.61;56.10;101628.59;4838443;29;124466;-78
2023/08/18 04:57:03;;;;;;;;;;;;;;;20.61;56.15;101628.59;4841318;29;114782;-78
2023/08/18 04:59:31;;;;;;;;;;;;;;;20.59;56.13;101622.44;4842904;29;113332;-78
2023/08/18 05:02:01;;;;;;;;;;;;;;;20.57;56.12;101617.16;4848301;29;123497;-78
2023/08/18 05:04:28;;;;;;;;;;;;;;;20.55;56.22;101618.22;4841493;29;122433;-77
2023/08/18 05:06:55;;;;;;;;;;;;;;;20.56;56.25;101622.66;4847637;28;113664;-78
2023/08/18 05:09:23;;;;;;;;;;;;;;;20.54;56.15;101611.16;4835547;29;113954;-78
2023/08/18 05:11:50;;;;;;;;;;;;;;;20.54;56.27;101612.00;4836424;29;124582;-78
2023/08/18 05:14:17;;;;;;;;;;;;;;;20.52;56.30;101607.72;4838448;29;124142;-78
2023/08/18 05:16:44;;;;;;;;;;;;;;;20.52;56.36;101613.09;4841179;29;115040;-78
2023/08/18 05:19:11;;;;;;;;;;;;;;;20.51;56.41;101616.75;4855181;28;113457;-78
2023/08/18 05:21:38;;;;;;;;;;;;;;;20.53;56.53;101614.78;4851791;28;123550;-77
2023/08/18 05:24:05;;;;;;;;;;;;;;;20.54;56.50;101616.53;4845524;29;124209;-77
2023/08/18 05:26:31;;;;;;;;;;;;;;;20.56;56.51;101619.97;4836762;29;115580;-78
2023/08/18 05:28:58;;;;;;;;;;;;;;;20.57;56.44;101627.06;4840410;29;114851;-78
2023/08/18 05:31:25;;;;;;;;;;;;;;;20.58;56.45;101628.78;4846010;29;124778;-78
2023/08/18 05:33:52;;;;;;;;;;;;;;;20.60;56.43;101626.84;4818871;29;123602;-78
2023/08/18 05:36:19;;;;;;;;;;;;;;;20.61;56.62;101628.59;4853270;28;113800;-78
2023/08/18 05:38:47;;;;;;;;;;;;;;;20.63;56.63;101629.31;4843017;29;113674;-78
2023/08/18 05:41:14;;;;;;;;;;;;;;;20.65;56.48;101630.06;4844359;29;124269;-78
2023/08/18 05:43:41;;;;;;;;;;;;;;;20.67;56.56;101633.50;4855308;29;123894;-78
2023/08/18 05:46:08;;;;;;;;;;;;;;;20.69;56.63;101626.16;4849952;28;112905;-78
2023/08/18 05:48:36;;;;;;;;;;;;;;;20.71;56.53;101624.22;4845167;29;112823;-78
2023/08/18 05:51:03;;;;;;;;;;;;;;;20.73;56.59;101624.94;4849687;29;124593;-78
2023/08/18 05:53:31;;;;;;;;;;;;;;;20.76;56.66;101627.44;4848830;29;124327;-78
2023/08/18 05:55:58;;;;;;;;;;;;;;;20.78;56.65;101625.47;4838678;29;114833;-78
2023/08/18 05:58:25;;;;;;;;;;;;;;;20.83;56.63;101616.19;4848790;28;112991;-78
2023/08/18 06:00:52;;;;;;;;;;;;;;;20.83;56.61;101610.78;4836625;29;124198;-78
2023/08/18 06:03:19;;;;;;;;;;;;;;;20.85;56.53;101614.22;4861341;28;124346;-78
2023/08/18 06:05:47;;;;;;;;;;;;;;;20.85;56.57;101603.44;4825541;29;114452;-78
2023/08/18 06:08:14;;;;;;;;;;;;;;;20.87;56.56;101601.50;4847253;29;113335;-78
2023/08/18 06:10:41;;;;;;;;;;;;;;;20.88;56.68;101603.22;4862085;28;124447;-78
2023/08/18 06:13:08;;;;;;;;;;;;;;;20.92;56.75;101599.31;4838434;28;123113;-78
2023/08/18 06:15:35;;;;;;;;;;;;;;;20.95;56.62;101605.34;4843737;28;115402;-78
2023/08/18 06:18:03;;;;;;;;;;;;;;;20.96;56.63;101606.19;4847692;29;114269;-78
2023/08/18 06:20:30;;;;;;;;;;;;;;;20.98;56.64;101602.41;4851131;28;124130;-78
2023/08/18 06:22:57;;;;;;;;;;;;;;;21.00;56.81;101602.28;4848935;29;124470;-78
2023/08/18 06:25:24;;;;;;;;;;;;;;;21.01;56.61;101593.22;4846860;29;114103;-78
2023/08/18 06:27:51;;;;;;;;;;;;;;;21.03;56.69;101593.13;4863967;28;113789;-78
2023/08/18 06:30:18;;;;;;;;;;;;;;;21.02;56.67;101592.25;4844067;29;124129;-78
2023/08/18 06:32:45;;;;;;;;;;;;;;;21.03;56.72;101591.28;4840555;29;124851;-78
2023/08/18 06:35:12;;;;;;;;;;;;;;;21.06;56.71;101601.81;4834191;29;114239;-78
2023/08/18 06:37:39;;;;;;;;;;;;;;;21.09;56.83;101596.19;4843818;29;114221;-78
2023/08/18 06:40:06;;;;;;;;;;;;;;;21.12;56.86;101590.56;4834903;29;124929;-78
2023/08/18 06:42:33;;;;;;;;;;;;;;;21.14;56.88;101591.28;4846544;29;124878;-78
2023/08/18 06:45:00;;;;;;;;;;;;;;;21.16;56.81;101592.03;4827734;29;114355;-78
2023/08/18 06:47:27;;;;;;;;;;;;;;;21.19;56.91;101597.19;4837711;29;114452;-78
2023/08/18 06:49:54;;;;;;;;;;;;;;;21.21;56.86;101594.38;4857258;28;123953;-78
2023/08/18 06:52:21;;;;;;;;;;;;;;;21.24;56.84;101599.50;4845087;29;122786;-78
2023/08/18 06:54:48;;;;;;;;;;;;;;;21.28;56.86;101600.13;4835720;29;114505;-77
2023/08/18 06:57:15;;;;;;;;;;;;;;;21.29;56.78;101601.88;4845822;29;114181;-77
2023/08/18 06:59:42;;;;;;;;;;;;;;;21.29;56.80;101596.47;4841520;28;124135;-77
2023/08/18 07:02:09;;;;;;;;;;;;;;;21.30;56.87;101596.34;4844623;29;123773;-78
2023/08/18 07:04:36;;;;;;;;;;;;;;;21.33;56.83;101603.34;4847080;29;115221;-78
2023/08/18 07:07:03;;;;;;;;;;;;;;;21.37;56.92;101599.41;4839708;29;115645;-78
2023/08/18 07:09:30;;;;;;;;;;;;;;;21.40;56.85;101599.19;4840090;29;123022;-78
2023/08/18 07:11:58;;;;;;;;;;;;;;;21.46;56.90;101593.34;4844468;29;124138;-78
2023/08/18 07:14:25;;;;;;;;;;;;;;;21.48;56.88;101591.38;4836897;29;114593;-78
2023/08/18 07:16:52;;;;;;;;;;;;;;;21.50;56.96;101597.50;4851892;28;114097;-78
2023/08/18 07:19:19;;;;;;;;;;;;;;;21.52;56.82;101592.84;4856634;28;124194;-78
2023/08/18 07:21:46;;;;;;;;;;;;;;;21.52;56.92;101600.91;4841917;29;124345;-78
2023/08/18 07:24:13;;;;;;;;;;;;;;;21.54;56.93;101590.88;4843090;28;115106;-78
2023/08/18 07:26:40;;;;;;;;;;;;;;;21.58;56.91;101596.88;4847835;29;114706;-78
2023/08/18 07:29:10;;;;;;;;;;;;;;;21.63;56.88;101604.63;4844221;29;125506;-78
2023/08/18 07:31:37;;;;;;;;;;;;;;;21.63;56.85;101594.69;4844582;29;124699;-78
2023/08/18 07:34:05;;;;;;;;;;;;;;;21.63;56.88;101610.00;4846218;29;114398;-78
2023/08/18 07:36:33;;;;;;;;;;;;;;;21.64;56.80;101606.31;4830479;29;114524;-78
2023/08/18 07:39:00;;;;;;;;;;;;;;;21.65;56.84;101597.25;4868072;28;124618;-78
2023/08/18 07:41:28;;;;;;;;;;;;;;;21.68;56.93;101613.19;4842964;29;124156;-78
2023/08/18 07:43:55;;;;;;;;;;;;;;;21.69;56.86;101599.56;4844182;29;115904;-77
2023/08/18 07:46:23;;;;;;;;;;;;;;;21.71;56.85;101608.41;4842497;29;113627;-78
2023/08/18 07:48:50;;;;;;;;;;;;;;;21.74;56.90;101601.91;4837433;29;123650;-78
2023/08/18 07:51:17;;;;;;;;;;;;;;;21.77;56.94;101601.66;4841408;29;123938;-77
2023/08/18 07:53:44;;;;;;;;;;;;;;;21.82;56.90;101598.59;4862400;28;115061;-78
2023/08/18 07:56:12;;;;;;;;;;;;;;;21.85;56.93;101596.53;4842028;28;113587;-77
2023/08/18 07:58:39;;;;;;;;;;;;;;;21.90;56.76;101596.97;4826268;29;124114;-78
2023/08/18 08:01:06;;;;;;;;;;;;;;;21.93;56.85;101607.53;4838415;29;123897;-78
2023/08/18 08:03:35;;;;;;;;;;;;;;;21.96;56.84;101603.72;4838450;29;115494;-78
2023/08/18 08:06:04;;;;;;;;;;;;;;;22.00;56.98;101607.03;4831895;29;114204;-78
2023/08/18 08:08:31;;;;;;;;;;;;;;;22.02;56.95;101599.66;4837563;29;124134;-78
2023/08/18 08:10:58;;;;;;;;;;;;;;;22.06;56.97;101606.56;4862016;28;123479;-78
2023/08/18 08:13:25;;;;;;;;;;;;;;;22.09;56.94;101601.72;4837584;29;114406;-78
2023/08/18 08:15:52;;;;;;;;;;;;;;;22.10;56.75;101603.47;4837743;29;113877;-78
2023/08/18 08:18:19;;;;;;;;;;;;;;;22.11;56.63;101609.72;4857123;28;123273;-78
2023/08/18 08:20:46;;;;;;;;;;;;;;;22.09;56.74;101617.06;4851763;29;123669;-77
2023/08/18 08:23:13;;;;;;;;;;;;;;;22.07;56.86;101610.94;4855766;28;116155;-78
2023/08/18 08:25:40;;;;;;;;;;;;;;;22.07;56.83;101619.03;4831640;29;113607;-78
2023/08/18 08:28:07;;;;;;;;;;;;;;;22.08;56.88;101615.38;4833706;29;123173;-78
2023/08/18 08:30:34;;;;;;;;;;;;;;;22.12;56.86;101616.84;4842498;29;124097;-78
2023/08/18 08:33:08;;;;;;;;;;;;;;;22.18;56.90;101616.31;4840826;29;113925;-78
2023/08/18 08:35:35;;;;;;;;;;;;;;;22.21;56.86;101610.69;4841987;29;113850;-78
2023/08/18 08:38:02;;;;;;;;;;;;;;;22.26;57.01;101608.47;4836703;29;123894;-78
2023/08/18 08:40:29;;;;;;;;;;;;;;;22.33;56.98;101619.63;4836605;29;123927;-78
2023/08/18 08:42:56;;;;;;;;;;;;;;;22.39;56.94;101620.97;4834869;29;115234;-77
2023/08/18 08:45:26;;;;;;;;;;;;;;;22.42;56.84;101612.63;4847741;29;115822;-78
2023/08/18 08:47:57;;;;;;;;;;;;;;;22.46;56.91;101619.47;4839276;29;124087;-78
2023/08/18 08:50:27;;;;;;;;;;;;;;;22.47;56.86;101613.06;4847893;29;124292;-78
2023/08/18 08:52:59;;;;;;;;;;;;;;;22.51;56.91;101614.56;4828940;29;114602;-78
2023/08/18 08:55:31;;;;;;;;;;;;;;;22.55;56.94;101624.13;4837228;29;113650;-78
2023/08/18 08:57:58;;;;;;;;;;;;;;;22.59;56.93;101625.56;4849228;29;124062;-77
2023/08/18 09:00:26;;;;;;;;;;;;;;;22.62;56.73;101624.44;4848753;29;124166;-78
2023/08/18 09:02:58;;;;;;;;;;;;;;;22.63;56.80;101627.03;4845426;29;113583;-78
2023/08/18 09:05:28;;;;;;;;;;;;;;;22.67;56.89;101622.22;4834601;29;113675;-78
2023/08/18 09:07:55;;;;;;;;;;;;;;;22.72;56.95;101631.66;4830038;29;123924;-78
2023/08/18 09:10:22;;;;;;;;;;;;;;;22.78;56.89;101629.44;4847214;28;123159;-78
2023/08/18 09:12:49;;;;;;;;;;;;;;;22.83;56.85;101632.56;4863036;28;113875;-78
2023/08/18 09:15:16;;;;;;;;;;;;;;;22.86;56.75;101632.31;4840832;29;114380;-78
2023/08/18 09:17:44;;;;;;;;;;;;;;;22.89;56.75;101621.28;4845993;29;124249;-77
2023/08/18 09:20:12;;;;;;;;;;;;;;;22.90;56.81;101633.78;4842702;29;123710;-77
2023/08/18 09:22:40;;;;;;;;;;;;;;;22.90;56.52;101628.38;4836276;29;115112;-78
2023/08/18 09:25:12;;;;;;;;;;;;;;;22.89;56.66;101626.69;4849145;28;113116;-76
2023/08/18 09:27:38;;;;;;;;;;;;;;;22.88;56.71;101608.72;4831701;29;125279;-75
2023/08/18 09:30:06;;;;;;;;;;;;;;;22.91;56.78;101613.88;4832476;29;124019;-75
2023/08/18 09:32:35;;;;;;;;;;;;;;;22.96;56.71;101618.88;4830716;29;114420;-75
2023/08/18 09:35:02;;;;;;;;;;;;;;;22.98;56.62;101615.09;4833106;29;113869;-75
2023/08/18 09:37:30;;;;;;;;;;;;;;;22.99;56.75;101622.19;4834305;29;124177;-75
2023/08/18 09:39:58;;;;;;;;;;;;;;;23.00;56.65;101618.50;4831221;29;124141;-75
2023/08/18 09:42:25;;;;;;;;;;;;;;;23.04;56.67;101620.00;4842144;29;114377;-75
2023/08/18 09:44:52;;;;;;;;;;;;;;;23.08;56.64;101616.03;4831857;29;114020;-74
2023/08/18 09:47:22;;;;;;;;;;;;;;;23.13;56.84;101624.59;4830162;29;124805;-75
2023/08/18 09:49:50;;;;;;;;;;;;;;;23.19;56.70;101611.53;4832969;29;125882;-75
2023/08/18 09:52:18;;;;;;;;;;;;;;;23.26;56.80;101619.00;4833620;29;115080;-75
2023/08/18 09:54:59;;;;;;;;;;;;;;;23.34;56.76;101610.22;4831136;29;114816;-75
2023/08/18 09:57:30;;;;;;;;;;;;;;;23.45;56.93;101607.44;4828550;29;123669;-75
2023/08/18 09:59:59;;;;;;;;;;;;;;;23.55;56.75;101603.94;4828331;29;124031;-75
2023/08/18 10:02:33;;;;;;;;;;;;;;;23.62;56.66;101602.38;4836991;29;114886;-75
2023/08/18 10:05:04;;;;;;;;;;;;;;;23.66;56.85;101595.72;4834538;29;114822;-76
2023/08/18 10:07:32;;;;;;;;;;;;;;;23.71;56.61;101596.16;4842936;28;124812;-76
2023/08/18 10:09:59;;;;;;;;;;;;;;;23.74;56.42;101601.28;4835081;29;124125;-76
2023/08/18 10:12:26;;;;;;;;;;;;;;;23.77;56.44;101601.03;4834687;29;115100;-76
2023/08/18 10:14:54;;;;;;;;;;;;;;;23.83;56.53;101589.69;4830626;29;113841;-76
2023/08/18 10:17:23;;;;;;;;;;;;;;;23.90;56.60;101590.84;4835344;29;124288;-75
2023/08/18 10:19:55;;;;;;;;;;;;;;;23.98;56.49;101591.97;4831147;29;124189;-75
2023/08/18 10:22:26;;;;;;;;;;;;;;;24.05;56.52;101590.44;4833047;29;116382;-75
2023/08/18 10:24:54;;;;;;;;;;;;;;;24.12;56.52;101582.63;4833769;29;114423;-76
2023/08/18 10:27:27;;;;;;;;;;;;;;;24.13;56.22;101579.78;4850992;28;124277;-76
2023/08/18 10:29:57;;;;;;;;;;;;;;;24.12;56.33;101580.78;4831780;28;124169;-77
2023/08/18 10:32:24;;;;;;;;;;;;;;;24.13;56.30;101585.22;4830484;29;114106;-77
2023/08/18 10:34:51;;;;;;;;;;;;;;;24.20;56.56;101589.03;4830563;29;114981;-76
2023/08/18 10:37:22;;;;;;;;;;;;;;;24.28;56.51;101594.63;4832617;29;126116;-76
2023/08/18 10:39:51;;;;;;;;;;;;;;;24.34;56.56;101586.94;4833505;29;125445;-76
2023/08/18 10:42:22;;;;;;;;;;;;;;;24.40;56.41;101581.81;4831359;29;114598;-76
2023/08/18 10:45:01;;;;;;;;;;;;;;;24.48;56.41;101578.38;4826482;29;113797;-77
2023/08/18 10:47:28;;;;;;;;;;;;;;;24.58;56.60;101573.88;4829852;29;124335;-78
2023/08/18 10:49:55;;;;;;;;;;;;;;;24.66;56.29;101571.31;4835585;29;124664;-76
2023/08/18 10:52:22;;;;;;;;;;;;;;;24.79;56.52;101564.72;4819494;29;114050;-76
2023/08/18 10:54:49;;;;;;;;;;;;;;;24.90;56.42;101556.41;4831028;29;113357;-77
2023/08/18 10:57:16;;;;;;;;;;;;;;;25.02;56.74;101555.28;4831588;29;124872;-77
2023/08/18 10:59:43;;;;;;;;;;;;;;;25.17;56.45;101552.94;4831331;29;122877;-76
2023/08/18 11:02:11;;;;;;;;;;;;;;;25.34;56.69;101554.06;4820806;29;113744;-77
2023/08/18 11:04:38;;;;;;;;;;;;;;;25.48;56.47;101543.72;4839200;29;113682;-76
2023/08/18 11:07:05;;;;;;;;;;;;;;;25.58;56.46;101547.25;4837743;29;124840;-76
2023/08/18 11:09:32;;;;;;;;;;;;;;;25.66;56.09;101539.22;4835625;29;125088;-77
2023/08/18 11:11:59;;;;;;;;;;;;;;;25.71;56.20;101539.63;4837678;29;115629;-76
2023/08/18 11:14:26;;;;;;;;;;;;;;;25.75;55.83;101543.75;4838164;29;115272;-77
2023/08/18 11:16:53;;;;;;;;;;;;;;;25.79;55.81;101542.44;4834409;29;124374;-79
2023/08/18 11:19:20;;;;;;;;;;;;;;;25.84;55.75;101540.13;4837654;29;123211;-77
2023/08/18 11:21:47;;;;;;;;;;;;;;;25.94;55.91;101533.81;4840507;29;114714;-76
2023/08/18 11:24:14;;;;;;;;;;;;;;;26.02;56.28;101537.44;4834366;29;113863;-77
2023/08/18 11:26:41;;;;;;;;;;;;;;;26.07;55.81;101531.56;4829043;29;124160;-76
2023/08/18 11:29:07;;;;;;;;;;;;;;;26.10;55.88;101539.41;4837699;29;123982;-76
2023/08/18 11:31:34;;;;;;;;;;;;;;;26.12;55.48;101526.50;4832663;29;114626;-77
2023/08/18 11:34:02;;;;;;;;;;;;;;;26.13;55.66;101521.97;4833295;29;114087;-76
2023/08/18 11:36:30;;;;;;;;;;;;;;;26.14;55.70;101519.06;4836744;29;124071;-77
2023/08/18 11:39:07;;;;;;;;;;;;;;;26.18;55.52;101515.06;4836749;29;124665;-77
2023/08/18 11:41:38;;;;;;;;;;;;;;;26.28;55.72;101511.41;4833276;29;114112;-77
2023/08/18 11:44:09;;;;;;;;;;;;;;;26.36;55.52;101512.31;4836184;29;114041;-76
2023/08/18 11:46:36;;;;;;;;;;;;;;;26.43;55.55;101501.69;4829878;29;124198;-76
2023/08/18 11:49:15;;;;;;;;;;;;;;;26.58;55.91;101497.41;4837063;29;124217;-77
2023/08/18 11:51:57;;;;;;;;;;;;;;;26.73;55.61;101491.41;4836347;29;114420;-76
2023/08/18 11:54:27;;;;;;;;;;;;;;;26.83;55.64;101486.72;4829836;29;114024;-76
2023/08/18 11:56:55;;;;;;;;;;;;;;;26.88;55.81;101481.66;4836649;29;124317;-77
2023/08/18 11:59:23;;;;;;;;;;;;;;;26.93;55.22;101471.16;4835749;29;122886;-76
2023/08/18 12:01:54;;;;;;;;;;;;;;;26.97;55.52;101467.13;4835726;29;115417;-77
2023/08/18 12:04:24;;;;;;;;;;;;;;;27.07;55.57;101467.00;4836837;29;114376;-76
2023/08/18 12:06:52;;;;;;;;;;;;;;;27.18;55.73;101457.66;4836681;29;124010;-76
2023/08/18 12:09:19;;;;;;;;;;;;;;;27.24;55.25;101467.91;4834333;29;124926;-76
2023/08/18 12:11:46;;;;;;;;;;;;;;;27.27;55.14;101467.59;4831437;29;114742;-76
2023/08/18 12:14:13;;;;;;;;;;;;;;;27.27;55.36;101464.03;4836034;29;114114;-76
2023/08/18 12:16:41;;;;;;;;;;;;;;;27.32;55.21;101465.25;4835510;29;124177;-76
2023/08/18 12:19:08;;;;;;;;;;;;;;;27.36;55.31;101466.63;4836203;29;125101;-77
2023/08/18 12:21:36;;;;;;;;;;;;;;;27.42;55.44;101467.84;4834262;29;114671;-76
2023/08/18 12:24:06;;;;;;;;;;;;;;;27.55;55.23;101464.66;4835239;29;113867;-77
2023/08/18 12:26:34;;;;;;;;;;;;;;;27.70;55.31;101456.69;4836056;29;124744;-77
2023/08/18 12:29:03;;;;;;;;;;;;;;;27.84;55.45;101458.78;4833722;29;123550;-77
2023/08/18 12:31:30;;;;;;;;;;;;;;;28.00;55.25;101457.97;4832163;29;115327;-77